createdAt,value
2018-05-19T00:00:06.897Z,82.78
2018-05-19T00:00:44.549Z,82.87
2018-05-19T00:01:19.806Z,82.68
2018-05-19T00:01:55.335Z,82.68
2018-05-19T00:02:30.769Z,82.87
2018-05-19T00:03:06.148Z,82.59
2018-05-19T00:03:41.795Z,83.64
2018-05-19T00:04:17.524Z,83.35
2018-05-19T00:04:52.989Z,83.54
2018-05-19T00:05:28.644Z,83.44
2018-05-19T00:06:03.947Z,83.54
2018-05-19T00:06:39.414Z,83.44
2018-05-19T00:07:14.547Z,83.06
2018-05-19T00:07:49.976Z,83.73
2018-05-19T00:08:25.494Z,83.92
2018-05-19T00:09:00.893Z,83.54
2018-05-19T00:09:36.235Z,82.59
2018-05-19T00:10:11.857Z,82.97
2018-05-19T00:10:47.629Z,83.16
2018-05-19T00:11:22.986Z,82.87
2018-05-19T00:11:58.657Z,82.87
2018-05-19T00:12:33.820Z,82.01
2018-05-19T00:13:09.392Z,82.40
2018-05-19T00:13:44.842Z,82.87
2018-05-19T00:14:20.134Z,83.16
2018-05-19T00:14:55.656Z,82.78
2018-05-19T00:15:30.735Z,82.49
2018-05-19T00:16:06.617Z,82.68
2018-05-19T00:16:42.289Z,82.97
2018-05-19T00:17:17.929Z,83.16
2018-05-19T00:17:53.526Z,83.92
2018-05-19T00:18:28.961Z,83.64
2018-05-19T00:19:04.285Z,83.35
2018-05-19T00:19:39.615Z,83.25
2018-05-19T00:20:15.346Z,83.06
2018-05-19T00:20:51.660Z,82.49
2018-05-19T00:21:27.104Z,82.87
2018-05-19T00:22:02.706Z,83.44
2018-05-19T00:22:38.334Z,83.83
2018-05-19T00:23:13.529Z,84.11
2018-05-19T00:23:48.814Z,84.01
2018-05-19T00:24:24.283Z,83.64
2018-05-19T00:24:59.804Z,82.64
2018-05-19T00:25:35.176Z,82.59
2018-05-19T00:26:10.527Z,82.78
2018-05-19T00:26:46.099Z,82.49
2018-05-19T00:27:21.505Z,81.44
2018-05-19T00:27:56.826Z,81.92
2018-05-19T00:28:32.237Z,81.82
2018-05-19T00:29:07.247Z,82.68
2018-05-19T00:29:42.615Z,83.16
2018-05-19T00:30:18.209Z,83.50
2018-05-19T00:30:53.380Z,83.44
2018-05-19T00:31:28.731Z,83.25
2018-05-19T00:32:04.518Z,84.26
2018-05-19T00:32:39.896Z,84.49
2018-05-19T00:33:15.211Z,83.78
2018-05-19T00:33:50.526Z,83.88
2018-05-19T00:34:26.088Z,83.88
2018-05-19T00:35:01.567Z,83.50
2018-05-19T00:35:37.011Z,83.02
2018-05-19T00:36:12.336Z,83.12
2018-05-19T00:36:47.710Z,83.21
2018-05-19T00:37:22.912Z,83.12
2018-05-19T00:37:58.314Z,82.59
2018-05-19T00:38:33.801Z,82.64
2018-05-19T00:39:09.105Z,82.64
2018-05-19T00:39:44.631Z,82.64
2018-05-19T00:40:19.835Z,83.50
2018-05-19T00:40:55.530Z,83.92
2018-05-19T00:41:31.200Z,84.55
2018-05-19T00:42:06.527Z,83.69
2018-05-19T00:42:41.844Z,83.78
2018-05-19T00:43:17.039Z,83.88
2018-05-19T00:43:52.683Z,83.50
2018-05-19T00:44:28.420Z,83.54
2018-05-19T00:45:03.774Z,83.50
2018-05-19T00:45:39.186Z,83.69
2018-05-19T00:46:14.596Z,83.78
2018-05-19T00:46:50.079Z,83.50
2018-05-19T00:47:25.907Z,83.59
2018-05-19T00:48:01.099Z,83.88
2018-05-19T00:48:36.559Z,83.40
2018-05-19T00:49:11.869Z,83.40
2018-05-19T00:49:47.239Z,83.21
2018-05-19T00:50:22.671Z,83.21
2018-05-19T00:50:58.103Z,83.59
2018-05-19T00:51:33.424Z,83.35
2018-05-19T00:52:08.890Z,84.36
2018-05-19T00:52:44.057Z,84.36
2018-05-19T00:53:19.332Z,83.69
2018-05-19T00:53:54.977Z,83.69
2018-05-19T00:54:30.712Z,84.45
2018-05-19T00:55:06.259Z,84.26
2018-05-19T00:55:41.386Z,84.64
2018-05-19T00:56:16.727Z,84.64
2018-05-19T00:56:52.178Z,84.16
2018-05-19T00:57:27.460Z,83.50
2018-05-19T00:58:02.909Z,83.88
2018-05-19T00:58:38.320Z,83.69
2018-05-19T00:59:13.512Z,83.78
2018-05-19T00:59:49.195Z,84.74
2018-05-19T01:00:24.802Z,84.55
2018-05-19T01:01:00.331Z,84.36
2018-05-19T01:01:35.692Z,84.45
2018-05-19T01:02:10.904Z,84.26
2018-05-19T01:02:46.317Z,84.07
2018-05-19T01:03:21.823Z,84.36
2018-05-19T01:03:57.189Z,84.55
2018-05-19T01:04:32.508Z,83.59
2018-05-19T01:05:07.870Z,83.59
2018-05-19T01:05:44.526Z,83.50
2018-05-19T01:06:19.627Z,83.69
2018-05-19T01:06:54.938Z,83.97
2018-05-19T01:07:30.161Z,83.69
2018-05-19T01:08:05.754Z,83.69
2018-05-19T01:08:41.039Z,83.69
2018-05-19T01:09:16.712Z,83.69
2018-05-19T01:09:52.022Z,83.69
2018-05-19T01:10:27.230Z,83.78
2018-05-19T01:11:03.399Z,83.88
2018-05-19T01:11:38.796Z,84.36
2018-05-19T01:12:14.266Z,84.26
2018-05-19T01:12:49.807Z,84.07
2018-05-19T01:13:25.114Z,84.26
2018-05-19T01:14:00.462Z,84.26
2018-05-19T01:14:35.833Z,84.64
2018-05-19T01:15:11.220Z,83.69
2018-05-19T01:15:46.532Z,84.45
2018-05-19T01:16:21.963Z,83.21
2018-05-19T01:16:57.356Z,83.50
2018-05-19T01:17:32.876Z,82.64
2018-05-19T01:18:08.421Z,82.83
2018-05-19T01:18:44.003Z,82.54
2018-05-19T01:19:19.581Z,82.73
2018-05-19T01:19:55.570Z,83.21
2018-05-19T01:20:30.957Z,83.31
2018-05-19T01:21:06.349Z,83.31
2018-05-19T01:21:41.792Z,83.50
2018-05-19T01:22:17.184Z,83.69
2018-05-19T01:22:52.823Z,83.97
2018-05-19T01:23:28.060Z,84.26
2018-05-19T01:24:03.580Z,84.55
2018-05-19T01:24:38.843Z,84.36
2018-05-19T01:25:14.124Z,85.21
2018-05-19T01:25:49.404Z,84.74
2018-05-19T01:26:24.808Z,85.21
2018-05-19T01:27:00.361Z,85.41
2018-05-19T01:27:36.001Z,85.21
2018-05-19T01:28:11.261Z,84.55
2018-05-19T01:28:46.669Z,83.50
2018-05-19T01:29:22.081Z,83.50
2018-05-19T01:29:57.487Z,83.97
2018-05-19T01:30:32.959Z,83.69
2018-05-19T01:31:08.321Z,83.78
2018-05-19T01:31:43.620Z,84.36
2018-05-19T01:32:18.984Z,84.45
2018-05-19T01:32:54.613Z,84.36
2018-05-19T01:33:29.736Z,84.26
2018-05-19T01:34:05.022Z,84.16
2018-05-19T01:34:43.566Z,83.69
2018-05-19T01:35:18.965Z,83.69
2018-05-19T01:35:54.391Z,83.88
2018-05-19T01:36:29.797Z,83.78
2018-05-19T01:37:04.938Z,84.64
2018-05-19T01:37:40.267Z,84.07
2018-05-19T01:38:15.846Z,84.64
2018-05-19T01:38:51.123Z,84.45
2018-05-19T01:39:26.590Z,84.55
2018-05-19T01:40:02.087Z,84.55
2018-05-19T01:40:39.818Z,84.07
2018-05-19T01:41:15.175Z,84.36
2018-05-19T01:41:50.585Z,84.64
2018-05-19T01:42:25.811Z,84.55
2018-05-19T01:43:01.232Z,84.50
2018-05-19T01:43:36.572Z,84.36
2018-05-19T01:44:11.890Z,83.97
2018-05-19T01:44:47.352Z,83.59
2018-05-19T01:45:22.402Z,83.97
2018-05-19T01:45:57.906Z,83.97
2018-05-19T01:46:33.308Z,83.97
2018-05-19T01:47:08.469Z,83.88
2018-05-19T01:47:43.870Z,83.69
2018-05-19T01:48:19.526Z,83.31
2018-05-19T01:48:54.868Z,83.59
2018-05-19T01:49:30.252Z,83.02
2018-05-19T01:50:05.651Z,83.50
2018-05-19T01:50:41.074Z,83.69
2018-05-19T01:51:16.247Z,83.69
2018-05-19T01:51:51.635Z,83.97
2018-05-19T01:52:27.189Z,84.31
2018-05-19T01:53:02.591Z,84.31
2018-05-19T01:53:38.134Z,84.60
2018-05-19T01:54:13.533Z,84.22
2018-05-19T01:54:48.841Z,84.55
2018-05-19T01:55:24.133Z,83.74
2018-05-19T01:55:59.507Z,83.55
2018-05-19T01:56:34.867Z,83.45
2018-05-19T01:57:10.272Z,83.36
2018-05-19T01:57:45.797Z,83.74
2018-05-19T01:58:21.288Z,83.45
2018-05-19T01:58:56.661Z,84.50
2018-05-19T01:59:32.205Z,83.78
2018-05-19T02:00:08.137Z,83.31
2018-05-19T02:00:43.318Z,83.45
2018-05-19T02:01:18.673Z,83.65
2018-05-19T02:01:54.362Z,83.26
2018-05-19T02:02:29.835Z,83.59
2018-05-19T02:03:05.386Z,83.88
2018-05-19T02:03:40.487Z,84.55
2018-05-19T02:04:15.739Z,84.36
2018-05-19T02:04:51.219Z,84.07
2018-05-19T02:05:26.602Z,84.31
2018-05-19T02:06:01.957Z,84.36
2018-05-19T02:06:37.208Z,84.50
2018-05-19T02:07:12.690Z,84.07
2018-05-19T02:07:48.054Z,83.50
2018-05-19T02:08:23.515Z,83.12
2018-05-19T02:08:58.778Z,83.31
2018-05-19T02:09:34.178Z,84.36
2018-05-19T02:10:10.033Z,83.21
2018-05-19T02:10:45.411Z,83.31
2018-05-19T02:11:20.686Z,82.64
2018-05-19T02:11:56.151Z,82.83
2018-05-19T02:12:31.578Z,83.21
2018-05-19T02:13:06.789Z,82.73
2018-05-19T02:13:42.392Z,82.64
2018-05-19T02:14:18.073Z,82.83
2018-05-19T02:14:53.562Z,82.54
2018-05-19T02:15:29.041Z,83.02
2018-05-19T02:16:04.259Z,82.64
2018-05-19T02:16:39.752Z,83.12
2018-05-19T02:17:15.106Z,83.12
2018-05-19T02:17:50.528Z,82.54
2018-05-19T02:18:25.972Z,83.02
2018-05-19T02:19:01.567Z,83.12
2018-05-19T02:19:37.117Z,83.21
2018-05-19T02:20:12.364Z,83.69
2018-05-19T02:20:47.852Z,83.59
2018-05-19T02:21:23.188Z,83.78
2018-05-19T02:21:58.866Z,83.40
2018-05-19T02:22:33.958Z,83.78
2018-05-19T02:23:09.038Z,83.69
2018-05-19T02:23:44.507Z,83.69
2018-05-19T02:24:20.195Z,83.40
2018-05-19T02:24:55.439Z,83.59
2018-05-19T02:25:30.658Z,83.65
2018-05-19T02:26:06.252Z,83.50
2018-05-19T02:26:41.486Z,83.21
2018-05-19T02:27:17.068Z,83.40
2018-05-19T02:27:52.443Z,83.21
2018-05-19T02:28:27.812Z,83.12
2018-05-19T02:29:03.151Z,82.92
2018-05-19T02:29:38.602Z,83.12
2018-05-19T02:30:13.929Z,82.89
2018-05-19T02:30:49.706Z,83.40
2018-05-19T02:31:25.153Z,83.07
2018-05-19T02:32:00.499Z,83.55
2018-05-19T02:32:35.796Z,83.50
2018-05-19T02:33:11.239Z,84.07
2018-05-19T02:33:46.685Z,84.07
2018-05-19T02:34:22.085Z,84.36
2018-05-19T02:34:57.409Z,83.74
2018-05-19T02:35:32.556Z,82.89
2018-05-19T02:36:07.976Z,83.02
2018-05-19T02:36:43.500Z,82.60
2018-05-19T02:37:18.867Z,82.60
2018-05-19T02:37:54.234Z,82.41
2018-05-19T02:38:29.611Z,82.41
2018-05-19T02:39:05.019Z,82.89
2018-05-19T02:39:40.231Z,83.26
2018-05-19T02:40:15.642Z,83.07
2018-05-19T02:40:51.067Z,83.07
2018-05-19T02:41:26.368Z,83.45
2018-05-19T02:42:01.515Z,82.89
2018-05-19T02:42:36.770Z,83.07
2018-05-19T02:43:12.368Z,83.55
2018-05-19T02:43:47.679Z,84.31
2018-05-19T02:44:23.135Z,84.69
2018-05-19T02:44:58.598Z,84.60
2018-05-19T02:45:33.941Z,83.74
2018-05-19T02:46:09.263Z,84.31
2018-05-19T02:46:44.666Z,84.31
2018-05-19T02:47:20.405Z,83.55
2018-05-19T02:47:56.000Z,83.55
2018-05-19T02:48:31.458Z,84.22
2018-05-19T02:49:06.743Z,83.65
2018-05-19T02:49:42.112Z,83.65
2018-05-19T02:50:17.482Z,83.45
2018-05-19T02:50:52.854Z,83.07
2018-05-19T02:51:28.348Z,82.98
2018-05-19T02:52:03.682Z,82.79
2018-05-19T02:52:38.865Z,83.26
2018-05-19T02:53:14.129Z,83.84
2018-05-19T02:53:49.427Z,84.50
2018-05-19T02:54:24.501Z,84.31
2018-05-19T02:54:59.931Z,84.60
2018-05-19T02:55:35.193Z,84.69
2018-05-19T02:56:10.700Z,85.27
2018-05-19T02:56:45.916Z,85.17
2018-05-19T02:57:21.218Z,85.74
2018-05-19T02:57:56.505Z,85.08
2018-05-19T02:58:32.359Z,85.36
2018-05-19T02:59:07.827Z,85.17
2018-05-19T02:59:43.480Z,85.36
2018-05-19T03:00:18.912Z,84.88
2018-05-19T03:00:55.410Z,85.36
2018-05-19T03:01:30.759Z,85.64
2018-05-19T03:02:06.134Z,86.03
2018-05-19T03:02:41.609Z,85.74
2018-05-19T03:03:16.947Z,85.84
2018-05-19T03:03:52.571Z,86.03
2018-05-19T03:04:27.902Z,86.12
2018-05-19T03:05:03.153Z,86.22
2018-05-19T03:05:38.590Z,85.84
2018-05-19T03:06:14.025Z,86.12
2018-05-19T03:06:49.211Z,85.46
2018-05-19T03:07:24.368Z,86.03
2018-05-19T03:07:59.580Z,85.46
2018-05-19T03:08:35.048Z,85.27
2018-05-19T03:09:10.493Z,85.08
2018-05-19T03:09:46.050Z,85.27
2018-05-19T03:10:21.764Z,85.55
2018-05-19T03:10:57.236Z,84.79
2018-05-19T03:11:32.791Z,84.69
2018-05-19T03:12:07.888Z,85.46
2018-05-19T03:12:43.053Z,84.88
2018-05-19T03:13:18.417Z,84.50
2018-05-19T03:13:53.694Z,84.88
2018-05-19T03:14:29.266Z,84.69
2018-05-19T03:15:05.034Z,84.69
2018-05-19T03:15:40.475Z,84.69
2018-05-19T03:16:15.958Z,84.22
2018-05-19T03:16:51.417Z,84.31
2018-05-19T03:17:26.915Z,84.03
2018-05-19T03:18:02.355Z,84.31
2018-05-19T03:18:37.834Z,84.12
2018-05-19T03:19:13.356Z,84.50
2018-05-19T03:19:49.052Z,84.36
2018-05-19T03:20:24.681Z,84.07
2018-05-19T03:20:59.863Z,84.92
2018-05-19T03:21:35.016Z,84.74
2018-05-19T03:22:10.323Z,84.92
2018-05-19T03:22:45.742Z,84.74
2018-05-19T03:23:21.235Z,84.36
2018-05-19T03:23:56.462Z,84.26
2018-05-19T03:24:31.658Z,83.69
2018-05-19T03:25:07.098Z,84.36
2018-05-19T03:25:42.655Z,84.36
2018-05-19T03:26:18.220Z,84.64
2018-05-19T03:26:53.804Z,84.64
2018-05-19T03:27:29.349Z,84.45
2018-05-19T03:28:04.602Z,84.36
2018-05-19T03:28:40.124Z,84.55
2018-05-19T03:29:15.450Z,83.50
2018-05-19T03:29:50.983Z,83.50
2018-05-19T03:30:26.481Z,83.59
2018-05-19T03:31:02.166Z,83.31
2018-05-19T03:31:37.452Z,83.69
2018-05-19T03:32:13.224Z,84.07
2018-05-19T03:32:48.599Z,83.59
2018-05-19T03:33:24.021Z,83.78
2018-05-19T03:33:59.385Z,83.50
2018-05-19T03:34:35.064Z,83.50
2018-05-19T03:35:10.632Z,83.69
2018-05-19T03:35:45.999Z,83.31
2018-05-19T03:36:21.529Z,84.45
2018-05-19T03:36:57.010Z,84.36
2018-05-19T03:37:32.279Z,84.36
2018-05-19T03:38:07.840Z,84.36
2018-05-19T03:38:43.413Z,84.26
2018-05-19T03:39:18.970Z,84.64
2018-05-19T03:39:54.514Z,84.36
2018-05-19T03:40:29.935Z,83.78
2018-05-19T03:41:05.627Z,83.12
2018-05-19T03:41:41.218Z,83.88
2018-05-19T03:42:16.675Z,83.50
2018-05-19T03:42:51.991Z,83.31
2018-05-19T03:43:27.325Z,83.78
2018-05-19T03:44:02.649Z,83.50
2018-05-19T03:44:37.966Z,84.36
2018-05-19T03:45:13.462Z,84.45
2018-05-19T03:45:48.609Z,83.78
2018-05-19T03:46:23.881Z,84.16
2018-05-19T03:46:59.202Z,84.26
2018-05-19T03:47:34.619Z,84.74
2018-05-19T03:48:09.869Z,84.64
2018-05-19T03:48:45.125Z,84.07
2018-05-19T03:49:20.781Z,84.26
2018-05-19T03:49:56.344Z,84.07
2018-05-19T03:50:31.745Z,83.59
2018-05-19T03:51:07.089Z,83.88
2018-05-19T03:51:43.461Z,83.31
2018-05-19T03:52:19.214Z,83.78
2018-05-19T03:52:54.594Z,83.69
2018-05-19T03:53:29.846Z,84.45
2018-05-19T03:54:05.199Z,84.45
2018-05-19T03:54:40.678Z,84.36
2018-05-19T03:55:16.120Z,84.55
2018-05-19T03:55:51.617Z,84.74
2018-05-19T03:56:26.752Z,84.64
2018-05-19T03:57:02.175Z,84.16
2018-05-19T03:57:37.651Z,84.55
2018-05-19T03:58:13.228Z,83.88
2018-05-19T03:58:48.394Z,84.36
2018-05-19T03:59:23.783Z,84.74
2018-05-19T03:59:59.039Z,83.97
2018-05-19T04:00:34.376Z,83.69
2018-05-19T04:01:09.394Z,83.78
2018-05-19T04:01:44.766Z,83.50
2018-05-19T04:02:19.958Z,83.31
2018-05-19T04:02:55.527Z,83.12
2018-05-19T04:03:30.990Z,83.44
2018-05-19T04:04:06.352Z,83.97
2018-05-19T04:04:41.601Z,83.69
2018-05-19T04:05:17.523Z,83.88
2018-05-19T04:05:53.331Z,84.45
2018-05-19T04:06:28.753Z,83.97
2018-05-19T04:07:03.880Z,83.69
2018-05-19T04:07:39.273Z,83.92
2018-05-19T04:08:15.052Z,84.49
2018-05-19T04:08:50.342Z,84.40
2018-05-19T04:09:25.893Z,84.97
2018-05-19T04:10:01.401Z,84.49
2018-05-19T04:10:36.860Z,84.59
2018-05-19T04:11:12.032Z,84.20
2018-05-19T04:11:47.589Z,84.97
2018-05-19T04:12:22.927Z,84.59
2018-05-19T04:12:58.440Z,84.59
2018-05-19T04:13:33.866Z,84.30
2018-05-19T04:14:09.542Z,84.49
2018-05-19T04:14:45.072Z,84.59
2018-05-19T04:15:20.480Z,84.30
2018-05-19T04:15:56.209Z,84.49
2018-05-19T04:16:31.609Z,84.40
2018-05-19T04:17:06.872Z,84.01
2018-05-19T04:17:42.025Z,84.11
2018-05-19T04:18:17.302Z,84.11
2018-05-19T04:18:52.759Z,83.92
2018-05-19T04:19:28.168Z,84.20
2018-05-19T04:20:03.772Z,83.83
2018-05-19T04:20:39.925Z,83.73
2018-05-19T04:21:15.548Z,83.83
2018-05-19T04:21:51.076Z,84.11
2018-05-19T04:22:26.778Z,84.59
2018-05-19T04:23:01.904Z,84.88
2018-05-19T04:23:37.171Z,84.11
2018-05-19T04:24:12.517Z,84.49
2018-05-19T04:24:48.127Z,84.69
2018-05-19T04:25:23.633Z,84.59
2018-05-19T04:25:59.990Z,84.11
2018-05-19T04:26:35.270Z,83.54
2018-05-19T04:27:10.813Z,83.83
2018-05-19T04:27:46.024Z,84.01
2018-05-19T04:28:21.493Z,84.49
2018-05-19T04:28:56.847Z,84.49
2018-05-19T04:29:32.086Z,84.01
2018-05-19T04:30:07.431Z,84.40
2018-05-19T04:30:43.377Z,84.40
2018-05-19T04:31:18.708Z,84.59
2018-05-19T04:31:53.972Z,84.49
2018-05-19T04:32:29.060Z,84.59
2018-05-19T04:33:04.407Z,84.59
2018-05-19T04:33:39.650Z,84.69
2018-05-19T04:34:15.007Z,84.59
2018-05-19T04:34:50.884Z,84.40
2018-05-19T04:35:26.283Z,84.40
2018-05-19T04:36:01.710Z,84.40
2018-05-19T04:36:37.076Z,84.20
2018-05-19T04:37:12.557Z,84.59
2018-05-19T04:37:48.069Z,84.59
2018-05-19T04:38:23.607Z,84.30
2018-05-19T04:38:58.816Z,84.11
2018-05-19T04:39:34.283Z,83.73
2018-05-19T04:40:09.813Z,83.64
2018-05-19T04:40:45.493Z,83.64
2018-05-19T04:41:20.519Z,83.83
2018-05-19T04:41:55.852Z,83.83
2018-05-19T04:42:31.090Z,83.83
2018-05-19T04:43:06.487Z,84.01
2018-05-19T04:43:41.882Z,83.25
2018-05-19T04:44:17.429Z,83.54
2018-05-19T04:44:53.110Z,83.73
2018-05-19T04:45:28.634Z,83.54
2018-05-19T04:46:03.769Z,83.44
2018-05-19T04:46:39.198Z,83.44
2018-05-19T04:47:14.905Z,83.64
2018-05-19T04:47:50.536Z,83.44
2018-05-19T04:48:25.762Z,83.54
2018-05-19T04:49:01.130Z,83.73
2018-05-19T04:49:36.579Z,83.54
2018-05-19T04:50:12.109Z,83.64
2018-05-19T04:50:47.739Z,83.44
2018-05-19T04:51:23.272Z,83.44
2018-05-19T04:51:58.505Z,83.54
2018-05-19T04:52:33.812Z,83.73
2018-05-19T04:53:09.680Z,83.44
2018-05-19T04:53:45.041Z,83.06
2018-05-19T04:54:20.471Z,83.44
2018-05-19T04:54:55.876Z,83.54
2018-05-19T04:55:31.544Z,83.73
2018-05-19T04:56:06.870Z,83.83
2018-05-19T04:56:42.094Z,83.44
2018-05-19T04:57:17.591Z,83.44
2018-05-19T04:57:53.036Z,83.06
2018-05-19T04:58:28.256Z,83.48
2018-05-19T04:59:03.563Z,83.16
2018-05-19T04:59:38.948Z,83.25
2018-05-19T05:00:14.336Z,83.25
2018-05-19T05:00:50.158Z,83.64
2018-05-19T05:01:25.895Z,83.16
2018-05-19T05:02:01.083Z,83.29
2018-05-19T05:02:36.240Z,83.20
2018-05-19T05:03:11.590Z,83.11
2018-05-19T05:03:46.981Z,83.25
2018-05-19T05:04:22.557Z,83.11
2018-05-19T05:04:57.948Z,83.29
2018-05-19T05:05:33.545Z,83.29
2018-05-19T05:06:09.052Z,82.91
2018-05-19T05:06:44.713Z,83.06
2018-05-19T05:07:20.082Z,83.25
2018-05-19T05:07:55.549Z,83.11
2018-05-19T05:08:31.021Z,82.91
2018-05-19T05:09:06.478Z,82.91
2018-05-19T05:09:41.920Z,83.67
2018-05-19T05:10:17.067Z,83.48
2018-05-19T05:10:52.410Z,83.29
2018-05-19T05:11:27.794Z,82.72
2018-05-19T05:12:03.486Z,82.72
2018-05-19T05:12:40.023Z,82.72
2018-05-19T05:13:15.546Z,82.43
2018-05-19T05:13:51.184Z,82.63
2018-05-19T05:14:26.587Z,83.01
2018-05-19T05:15:02.018Z,82.63
2018-05-19T05:15:37.903Z,82.72
2018-05-19T05:16:13.621Z,82.34
2018-05-19T05:16:49.212Z,82.53
2018-05-19T05:17:24.550Z,82.43
2018-05-19T05:18:00.065Z,82.34
2018-05-19T05:18:35.476Z,81.96
2018-05-19T05:19:10.943Z,82.06
2018-05-19T05:19:46.653Z,81.67
2018-05-19T05:20:22.106Z,81.48
2018-05-19T05:20:58.104Z,81.58
2018-05-19T05:21:33.432Z,81.77
2018-05-19T05:22:08.885Z,82.15
2018-05-19T05:22:44.794Z,82.38
2018-05-19T05:23:20.116Z,82.19
2018-05-19T05:23:55.727Z,81.90
2018-05-19T05:24:31.063Z,81.81
2018-05-19T05:25:06.485Z,81.24
2018-05-19T05:25:44.670Z,81.62
2018-05-19T05:26:20.062Z,81.71
2018-05-19T05:26:55.394Z,81.71
2018-05-19T05:27:30.540Z,81.71
2018-05-19T05:28:06.161Z,81.90
2018-05-19T05:28:41.433Z,81.90
2018-05-19T05:29:16.901Z,81.14
2018-05-19T05:29:52.281Z,80.95
2018-05-19T05:30:27.768Z,81.04
2018-05-19T05:31:03.234Z,80.66
2018-05-19T05:31:38.590Z,80.76
2018-05-19T05:32:14.086Z,80.85
2018-05-19T05:32:49.477Z,81.43
2018-05-19T05:33:24.972Z,81.71
2018-05-19T05:34:00.518Z,81.43
2018-05-19T05:34:35.948Z,80.99
2018-05-19T05:35:11.205Z,80.80
2018-05-19T05:35:47.024Z,80.80
2018-05-19T05:36:22.699Z,80.22
2018-05-19T05:36:57.988Z,80.22
2018-05-19T05:37:33.337Z,80.22
2018-05-19T05:38:08.940Z,80.22
2018-05-19T05:38:44.558Z,80.04
2018-05-19T05:39:19.909Z,79.85
2018-05-19T05:39:55.678Z,79.85
2018-05-19T05:40:31.227Z,79.27
2018-05-19T05:41:06.971Z,78.89
2018-05-19T05:41:42.382Z,79.17
2018-05-19T05:42:17.939Z,79.36
2018-05-19T05:42:53.235Z,79.17
2018-05-19T05:43:28.637Z,78.60
2018-05-19T05:44:04.149Z,78.83
2018-05-19T05:44:41.808Z,78.74
2018-05-19T05:45:17.378Z,78.64
2018-05-19T05:45:52.592Z,78.64
2018-05-19T05:46:28.691Z,77.78
2018-05-19T05:47:04.145Z,78.26
2018-05-19T05:47:39.547Z,78.64
2018-05-19T05:48:14.928Z,78.07
2018-05-19T05:48:50.376Z,78.16
2018-05-19T05:49:25.889Z,78.07
2018-05-19T05:50:01.162Z,77.59
2018-05-19T05:50:36.783Z,77.50
2018-05-19T05:51:12.387Z,77.69
2018-05-19T05:51:47.724Z,77.50
2018-05-19T05:52:23.357Z,77.53
2018-05-19T05:52:58.685Z,77.53
2018-05-19T05:53:33.924Z,77.44
2018-05-19T05:54:09.553Z,77.34
2018-05-19T05:54:45.450Z,77.63
2018-05-19T05:55:21.229Z,77.53
2018-05-19T05:55:56.780Z,77.44
2018-05-19T05:56:32.620Z,77.44
2018-05-19T05:57:07.902Z,77.34
2018-05-19T05:57:43.273Z,76.67
2018-05-19T05:58:18.549Z,76.67
2018-05-19T05:58:53.929Z,76.57
2018-05-19T05:59:29.704Z,76.39
2018-05-19T06:00:04.928Z,76.62
2018-05-19T06:00:41.332Z,76.10
2018-05-19T06:01:16.668Z,76.00
2018-05-19T06:01:52.103Z,76.14
2018-05-19T06:02:27.346Z,75.37
2018-05-19T06:03:03.985Z,75.18
2018-05-19T06:03:39.469Z,75.37
2018-05-19T06:04:14.705Z,75.37
2018-05-19T06:04:50.128Z,75.37
2018-05-19T06:05:25.761Z,75.18
2018-05-19T06:06:01.134Z,75.18
2018-05-19T06:06:37.053Z,75.09
2018-05-19T06:07:12.393Z,74.70
2018-05-19T06:07:47.627Z,74.70
2018-05-19T06:08:22.829Z,74.41
2018-05-19T06:08:58.080Z,74.80
2018-05-19T06:09:33.485Z,74.61
2018-05-19T06:10:08.956Z,74.61
2018-05-19T06:10:44.990Z,74.61
2018-05-19T06:11:20.573Z,74.61
2018-05-19T06:11:55.951Z,74.22
2018-05-19T06:12:31.576Z,74.45
2018-05-19T06:13:06.850Z,74.07
2018-05-19T06:13:42.408Z,73.59
2018-05-19T06:14:17.747Z,73.69
2018-05-19T06:14:53.077Z,73.50
2018-05-19T06:15:28.513Z,73.21
2018-05-19T06:16:04.191Z,73.11
2018-05-19T06:16:39.427Z,73.21
2018-05-19T06:17:15.023Z,73.11
2018-05-19T06:17:50.516Z,72.73
2018-05-19T06:18:25.893Z,72.54
2018-05-19T06:19:01.143Z,72.54
2018-05-19T06:19:36.603Z,72.77
2018-05-19T06:20:11.971Z,72.58
2018-05-19T06:20:47.614Z,71.71
2018-05-19T06:21:22.926Z,70.95
2018-05-19T06:21:58.367Z,70.76
2018-05-19T06:22:34.076Z,70.85
2018-05-19T06:23:09.374Z,70.41
2018-05-19T06:23:44.772Z,70.31
2018-05-19T06:24:20.309Z,69.54
2018-05-19T06:24:55.813Z,69.83
2018-05-19T06:25:31.100Z,69.45
2018-05-19T06:26:06.495Z,69.26
2018-05-19T06:26:41.884Z,69.45
2018-05-19T06:27:17.288Z,69.20
2018-05-19T06:27:52.842Z,68.68
2018-05-19T06:28:28.115Z,68.78
2018-05-19T06:29:03.362Z,68.81
2018-05-19T06:29:38.687Z,68.43
2018-05-19T06:30:14.025Z,68.52
2018-05-19T06:30:49.401Z,68.24
2018-05-19T06:31:25.213Z,68.52
2018-05-19T06:32:00.680Z,68.52
2018-05-19T06:32:36.065Z,68.24
2018-05-19T06:33:11.546Z,67.95
2018-05-19T06:33:46.680Z,68.62
2018-05-19T06:34:22.897Z,68.24
2018-05-19T06:34:58.617Z,68.24
2018-05-19T06:35:33.980Z,68.43
2018-05-19T06:36:09.312Z,68.33
2018-05-19T06:36:48.038Z,67.85
2018-05-19T06:37:23.152Z,67.66
2018-05-19T06:37:58.692Z,68.05
2018-05-19T06:38:33.900Z,68.14
2018-05-19T06:39:09.204Z,68.14
2018-05-19T06:39:44.864Z,67.76
2018-05-19T06:40:20.388Z,68.33
2018-05-19T06:40:55.660Z,68.14
2018-05-19T06:41:30.908Z,68.24
2018-05-19T06:42:06.275Z,68.14
2018-05-19T06:42:41.610Z,68.24
2018-05-19T06:43:17.192Z,68.14
2018-05-19T06:43:52.573Z,68.05
2018-05-19T06:44:29.070Z,67.18
2018-05-19T06:45:04.451Z,66.89
2018-05-19T06:45:40.335Z,67.28
2018-05-19T06:46:15.734Z,66.99
2018-05-19T06:46:51.018Z,66.99
2018-05-19T06:47:26.385Z,67.28
2018-05-19T06:48:01.864Z,67.50
2018-05-19T06:48:37.163Z,67.99
2018-05-19T06:49:12.507Z,67.22
2018-05-19T06:49:48.175Z,66.93
2018-05-19T06:50:23.839Z,67.12
2018-05-19T06:50:59.322Z,67.12
2018-05-19T06:51:34.886Z,67.12
2018-05-19T06:52:10.683Z,65.59
2018-05-19T06:52:46.146Z,65.78
2018-05-19T06:53:21.518Z,65.59
2018-05-19T06:53:56.977Z,65.68
2018-05-19T06:54:32.287Z,65.97
2018-05-19T06:55:07.712Z,66.67
2018-05-19T06:55:43.183Z,65.88
2018-05-19T06:56:18.381Z,65.43
2018-05-19T06:56:53.632Z,65.72
2018-05-19T06:57:29.300Z,65.81
2018-05-19T06:58:04.731Z,65.14
2018-05-19T06:58:40.529Z,64.95
2018-05-19T06:59:16.187Z,65.05
2018-05-19T06:59:51.621Z,64.85
2018-05-19T07:00:27.325Z,64.85
2018-05-19T07:01:03.100Z,65.05
2018-05-19T07:01:38.582Z,64.76
2018-05-19T07:02:14.059Z,65.05
2018-05-19T07:02:49.660Z,64.85
2018-05-19T07:03:25.201Z,64.72
2018-05-19T07:04:00.503Z,64.82
2018-05-19T07:04:35.975Z,65.30
2018-05-19T07:05:11.652Z,65.52
2018-05-19T07:05:47.089Z,66.19
2018-05-19T07:06:22.451Z,65.46
2018-05-19T07:06:57.840Z,64.92
2018-05-19T07:07:33.186Z,64.53
2018-05-19T07:08:08.968Z,63.28
2018-05-19T07:08:44.352Z,62.74
2018-05-19T07:09:19.731Z,63.12
2018-05-19T07:09:54.899Z,61.78
2018-05-19T07:10:30.628Z,60.66
2018-05-19T07:11:05.895Z,60.66
2018-05-19T07:11:41.299Z,60.37
2018-05-19T07:12:17.065Z,60.30
2018-05-19T07:12:52.373Z,59.53
2018-05-19T07:13:28.165Z,59.24
2018-05-19T07:14:03.321Z,59.56
2018-05-19T07:14:38.945Z,59.08
2018-05-19T07:15:14.402Z,58.50
2018-05-19T07:15:49.593Z,58.31
2018-05-19T07:16:24.952Z,58.44
2018-05-19T07:17:00.387Z,57.76
2018-05-19T07:17:35.804Z,57.18
2018-05-19T07:18:11.305Z,56.29
2018-05-19T07:18:46.770Z,56.38
2018-05-19T07:19:22.085Z,57.09
2018-05-19T07:19:57.582Z,57.09
2018-05-19T07:20:33.402Z,57.28
2018-05-19T07:21:08.837Z,57.28
2018-05-19T07:21:44.158Z,56.41
2018-05-19T07:22:19.304Z,56.51
2018-05-19T07:22:54.634Z,56.96
2018-05-19T07:23:30.122Z,57.06
2018-05-19T07:24:05.902Z,56.96
2018-05-19T07:24:41.266Z,56.96
2018-05-19T07:25:16.781Z,56.58
2018-05-19T07:25:52.152Z,57.64
2018-05-19T07:26:27.830Z,57.03
2018-05-19T07:27:03.061Z,56.45
2018-05-19T07:27:38.574Z,56.62
2018-05-19T07:28:14.203Z,56.84
2018-05-19T07:28:49.622Z,57.80
2018-05-19T07:29:24.878Z,58.28
2018-05-19T07:30:00.697Z,56.93
2018-05-19T07:30:36.600Z,57.03
2018-05-19T07:31:12.240Z,56.65
2018-05-19T07:31:47.488Z,56.84
2018-05-19T07:32:23.108Z,57.68
2018-05-19T07:32:58.357Z,58.47
2018-05-19T07:33:33.971Z,59.72
2018-05-19T07:34:09.432Z,58.57
2018-05-19T07:34:44.842Z,58.73
2018-05-19T07:35:20.243Z,59.05
2018-05-19T07:35:55.661Z,58.86
2018-05-19T07:36:31.086Z,58.09